sensor_id;sensor_type;location;lat;lon;timestamp;temperature;humidity
17639;DHT22;8938;53.546;9.954;2023-04-24T00:01:12;16.60;99.90
17639;DHT22;8938;53.546;9.954;2023-04-24T00:03:38;16.60;99.90
17639;DHT22;8938;53.546;9.954;2023-04-24T00:06:04;16.60;99.90
17639;DHT22;8938;53.546;9.954;2023-04-24T00:08:32;16.70;99.90
17639;DHT22;8938;53.546;9.954;2023-04-24T00:10:57;16.70;99.90
17639;DHT22;8938;53.546;9.954;2023-04-24T00:13:23;16.70;99.90
17639;DHT22;8938;53.546;9.954;2023-04-24T00:15:48;16.80;99.90
17639;DHT22;8938;53.546;9.954;2023-04-24T00:18:14;16.70;99.90
17639;DHT22;8938;53.546;9.954;2023-04-24T00:20:40;16.70;99.90
17639;DHT22;8938;53.546;9.954;2023-04-24T00:23:06;16.80;99.90
17639;DHT22;8938;53.546;9.954;2023-04-24T00:25:31;16.80;99.90
17639;DHT22;8938;53.546;9.954;2023-04-24T00:27:57;16.80;99.90
17639;DHT22;8938;53.546;9.954;2023-04-24T00:30:22;16.80;99.90
17639;DHT22;8938;53.546;9.954;2023-04-24T00:32:48;16.70;99.90
17639;DHT22;8938;53.546;9.954;2023-04-24T00:35:13;16.70;99.90
17639;DHT22;8938;53.546;9.954;2023-04-24T00:37:39;16.60;99.90
17639;DHT22;8938;53.546;9.954;2023-04-24T00:40:06;16.60;99.90
17639;DHT22;8938;53.546;9.954;2023-04-24T00:42:32;16.60;99.90
17639;DHT22;8938;53.546;9.954;2023-04-24T00:44:57;16.60;99.90
17639;DHT22;8938;53.546;9.954;2023-04-24T00:47:23;16.50;99.90
17639;DHT22;8938;53.546;9.954;2023-04-24T00:49:50;16.50;99.90
17639;DHT22;8938;53.546;9.954;2023-04-24T00:52:15;16.50;99.90
17639;DHT22;8938;53.546;9.954;2023-04-24T00:54:43;16.40;99.90
17639;DHT22;8938;53.546;9.954;2023-04-24T00:57:10;16.40;99.90
17639;DHT22;8938;53.546;9.954;2023-04-24T00:59:35;16.30;99.90
17639;DHT22;8938;53.546;9.954;2023-04-24T01:02:01;16.30;99.90
17639;DHT22;8938;53.546;9.954;2023-04-24T01:04:27;16.30;99.90
17639;DHT22;8938;53.546;9.954;2023-04-24T01:06:54;16.30;99.90
17639;DHT22;8938;53.546;9.954;2023-04-24T01:09:23;16.20;99.90
17639;DHT22;8938;53.546;9.954;2023-04-24T01:11:49;16.20;99.90
17639;DHT22;8938;53.546;9.954;2023-04-24T01:14:15;16.20;99.90
17639;DHT22;8938;53.546;9.954;2023-04-24T01:16:40;16.10;99.90
17639;DHT22;8938;53.546;9.954;2023-04-24T01:19:07;16.10;99.90
17639;DHT22;8938;53.546;9.954;2023-04-24T01:21:36;16.10;99.90
17639;DHT22;8938;53.546;9.954;2023-04-24T01:24:06;16.10;99.90
17639;DHT22;8938;53.546;9.954;2023-04-24T01:26:32;16.10;99.90
17639;DHT22;8938;53.546;9.954;2023-04-24T01:28:58;16.10;99.90
17639;DHT22;8938;53.546;9.954;2023-04-24T01:31:23;16.10;99.90
17639;DHT22;8938;53.546;9.954;2023-04-24T01:33:50;16.20;99.90
17639;DHT22;8938;53.546;9.954;2023-04-24T01:36:16;16.20;99.90
17639;DHT22;8938;53.546;9.954;2023-04-24T01:38:42;16.20;99.90
17639;DHT22;8938;53.546;9.954;2023-04-24T01:41:07;16.10;99.90
17639;DHT22;8938;53.546;9.954;2023-04-24T01:43:33;16.10;99.90
17639;DHT22;8938;53.546;9.954;2023-04-24T01:45:59;16.00;99.90
17639;DHT22;8938;53.546;9.954;2023-04-24T01:48:24;16.10;99.90
17639;DHT22;8938;53.546;9.954;2023-04-24T01:50:50;16.10;99.90
17639;DHT22;8938;53.546;9.954;2023-04-24T01:53:15;16.20;99.90
17639;DHT22;8938;53.546;9.954;2023-04-24T01:55:41;16.20;99.90
17639;DHT22;8938;53.546;9.954;2023-04-24T01:58:07;16.20;99.90
17639;DHT22;8938;53.546;9.954;2023-04-24T02:00:32;16.20;99.90
17639;DHT22;8938;53.546;9.954;2023-04-24T02:02:58;16.10;99.90
17639;DHT22;8938;53.546;9.954;2023-04-24T02:05:23;16.20;99.90
17639;DHT22;8938;53.546;9.954;2023-04-24T02:07:49;16.20;99.90
17639;DHT22;8938;53.546;9.954;2023-04-24T02:10:14;16.10;99.90
17639;DHT22;8938;53.546;9.954;2023-04-24T02:12:40;16.00;99.90
17639;DHT22;8938;53.546;9.954;2023-04-24T02:15:06;15.90;99.90
17639;DHT22;8938;53.546;9.954;2023-04-24T02:17:32;16.00;99.90
17639;DHT22;8938;53.546;9.954;2023-04-24T02:19:57;16.00;99.90
17639;DHT22;8938;53.546;9.954;2023-04-24T02:22:23;16.00;99.90
17639;DHT22;8938;53.546;9.954;2023-04-24T02:24:48;16.00;99.90
17639;DHT22;8938;53.546;9.954;2023-04-24T02:27:14;16.00;99.90
17639;DHT22;8938;53.546;9.954;2023-04-24T02:29:40;16.00;99.90
17639;DHT22;8938;53.546;9.954;2023-04-24T02:32:05;15.90;99.90
17639;DHT22;8938;53.546;9.954;2023-04-24T02:34:31;15.90;99.90
17639;DHT22;8938;53.546;9.954;2023-04-24T02:36:56;15.90;99.90
17639;DHT22;8938;53.546;9.954;2023-04-24T02:39:22;16.00;99.90
17639;DHT22;8938;53.546;9.954;2023-04-24T02:41:47;16.00;99.90
17639;DHT22;8938;53.546;9.954;2023-04-24T02:44:13;15.80;99.90
17639;DHT22;8938;53.546;9.954;2023-04-24T02:46:38;15.80;99.90
17639;DHT22;8938;53.546;9.954;2023-04-24T02:49:06;15.70;99.90
17639;DHT22;8938;53.546;9.954;2023-04-24T02:51:32;15.70;99.90
17639;DHT22;8938;53.546;9.954;2023-04-24T02:53:57;15.70;99.90
17639;DHT22;8938;53.546;9.954;2023-04-24T02:56:23;15.70;99.90
17639;DHT22;8938;53.546;9.954;2023-04-24T02:58:48;15.70;99.90
17639;DHT22;8938;53.546;9.954;2023-04-24T03:01:14;15.70;99.90
17639;DHT22;8938;53.546;9.954;2023-04-24T03:03:40;15.60;99.90
17639;DHT22;8938;53.546;9.954;2023-04-24T03:06:05;15.50;99.90
17639;DHT22;8938;53.546;9.954;2023-04-24T03:08:31;15.50;99.90
17639;DHT22;8938;53.546;9.954;2023-04-24T03:10:57;15.50;99.90
17639;DHT22;8938;53.546;9.954;2023-04-24T03:13:23;15.50;99.90
17639;DHT22;8938;53.546;9.954;2023-04-24T03:15:48;15.50;99.90
17639;DHT22;8938;53.546;9.954;2023-04-24T03:18:14;15.50;99.90
17639;DHT22;8938;53.546;9.954;2023-04-24T03:20:39;15.40;99.90
17639;DHT22;8938;53.546;9.954;2023-04-24T03:23:05;15.30;99.90
17639;DHT22;8938;53.546;9.954;2023-04-24T03:25:30;15.30;99.90
17639;DHT22;8938;53.546;9.954;2023-04-24T03:27:56;15.20;99.90
17639;DHT22;8938;53.546;9.954;2023-04-24T03:30:21;15.20;99.90
17639;DHT22;8938;53.546;9.954;2023-04-24T03:32:47;15.20;99.90
17639;DHT22;8938;53.546;9.954;2023-04-24T03:35:12;15.20;99.90
17639;DHT22;8938;53.546;9.954;2023-04-24T03:37:38;15.10;99.90
17639;DHT22;8938;53.546;9.954;2023-04-24T03:40:04;15.10;99.90
17639;DHT22;8938;53.546;9.954;2023-04-24T03:42:31;15.00;99.90
17639;DHT22;8938;53.546;9.954;2023-04-24T03:44:56;15.10;99.90
17639;DHT22;8938;53.546;9.954;2023-04-24T03:47:22;15.10;99.90
17639;DHT22;8938;53.546;9.954;2023-04-24T03:49:47;15.00;99.90
17639;DHT22;8938;53.546;9.954;2023-04-24T03:52:13;15.00;99.90
17639;DHT22;8938;53.546;9.954;2023-04-24T03:54:38;14.90;99.90
17639;DHT22;8938;53.546;9.954;2023-04-24T03:57:04;15.00;99.90
17639;DHT22;8938;53.546;9.954;2023-04-24T03:59:30;14.90;99.90
17639;DHT22;8938;53.546;9.954;2023-04-24T04:01:56;14.90;99.90
17639;DHT22;8938;53.546;9.954;2023-04-24T04:04:21;15.00;99.90
17639;DHT22;8938;53.546;9.954;2023-04-24T04:06:47;15.00;99.90
17639;DHT22;8938;53.546;9.954;2023-04-24T04:09:13;15.00;99.90
17639;DHT22;8938;53.546;9.954;2023-04-24T04:11:38;15.00;99.90
17639;DHT22;8938;53.546;9.954;2023-04-24T04:14:04;14.90;99.90
17639;DHT22;8938;53.546;9.954;2023-04-24T04:16:30;14.90;99.90
17639;DHT22;8938;53.546;9.954;2023-04-24T04:18:56;14.90;99.90
17639;DHT22;8938;53.546;9.954;2023-04-24T04:21:21;14.90;99.90
17639;DHT22;8938;53.546;9.954;2023-04-24T04:23:47;15.00;99.90
17639;DHT22;8938;53.546;9.954;2023-04-24T04:26:13;15.00;99.90
17639;DHT22;8938;53.546;9.954;2023-04-24T04:28:38;15.00;99.90
17639;DHT22;8938;53.546;9.954;2023-04-24T04:31:05;15.00;99.90
17639;DHT22;8938;53.546;9.954;2023-04-24T04:33:30;14.90;99.90
17639;DHT22;8938;53.546;9.954;2023-04-24T04:35:56;14.90;99.90
17639;DHT22;8938;53.546;9.954;2023-04-24T04:38:22;14.80;99.90
17639;DHT22;8938;53.546;9.954;2023-04-24T04:40:48;14.80;99.90
17639;DHT22;8938;53.546;9.954;2023-04-24T04:43:13;14.80;99.90
17639;DHT22;8938;53.546;9.954;2023-04-24T04:45:40;14.90;99.90
17639;DHT22;8938;53.546;9.954;2023-04-24T04:48:06;15.00;99.90
17639;DHT22;8938;53.546;9.954;2023-04-24T04:50:34;15.00;99.90
17639;DHT22;8938;53.546;9.954;2023-04-24T04:53:00;15.00;99.90
17639;DHT22;8938;53.546;9.954;2023-04-24T04:55:25;15.00;99.90
17639;DHT22;8938;53.546;9.954;2023-04-24T04:57:51;15.10;99.90
17639;DHT22;8938;53.546;9.954;2023-04-24T05:00:17;15.10;99.90
17639;DHT22;8938;53.546;9.954;2023-04-24T05:02:43;15.20;99.90
17639;DHT22;8938;53.546;9.954;2023-04-24T05:05:09;15.20;99.90
17639;DHT22;8938;53.546;9.954;2023-04-24T05:07:35;15.20;99.90
17639;DHT22;8938;53.546;9.954;2023-04-24T05:10:00;15.10;99.90
17639;DHT22;8938;53.546;9.954;2023-04-24T05:12:26;15.10;99.90
17639;DHT22;8938;53.546;9.954;2023-04-24T05:14:52;15.10;99.90
17639;DHT22;8938;53.546;9.954;2023-04-24T05:17:18;15.00;99.90
17639;DHT22;8938;53.546;9.954;2023-04-24T05:19:44;15.10;99.90
17639;DHT22;8938;53.546;9.954;2023-04-24T05:22:10;15.10;99.90
17639;DHT22;8938;53.546;9.954;2023-04-24T05:24:36;15.20;99.90
17639;DHT22;8938;53.546;9.954;2023-04-24T05:27:02;15.70;99.90
17639;DHT22;8938;53.546;9.954;2023-04-24T05:29:30;15.10;99.90
17639;DHT22;8938;53.546;9.954;2023-04-24T05:31:57;15.10;99.90
17639;DHT22;8938;53.546;9.954;2023-04-24T05:34:22;15.10;99.90
17639;DHT22;8938;53.546;9.954;2023-04-24T05:36:48;15.10;99.90
17639;DHT22;8938;53.546;9.954;2023-04-24T05:39:14;15.20;99.90
17639;DHT22;8938;53.546;9.954;2023-04-24T05:41:40;15.10;99.90
17639;DHT22;8938;53.546;9.954;2023-04-24T05:44:06;15.10;99.90
17639;DHT22;8938;53.546;9.954;2023-04-24T05:46:31;15.20;99.90
17639;DHT22;8938;53.546;9.954;2023-04-24T05:48:57;15.30;99.90
17639;DHT22;8938;53.546;9.954;2023-04-24T05:51:23;15.30;99.90
17639;DHT22;8938;53.546;9.954;2023-04-24T05:53:49;15.40;99.90
17639;DHT22;8938;53.546;9.954;2023-04-24T05:56:15;15.30;99.90
17639;DHT22;8938;53.546;9.954;2023-04-24T05:58:41;15.40;99.90
17639;DHT22;8938;53.546;9.954;2023-04-24T06:01:06;15.30;99.90
17639;DHT22;8938;53.546;9.954;2023-04-24T06:03:32;15.40;99.90
17639;DHT22;8938;53.546;9.954;2023-04-24T06:05:58;15.40;99.90
17639;DHT22;8938;53.546;9.954;2023-04-24T06:08:23;15.30;99.90
17639;DHT22;8938;53.546;9.954;2023-04-24T06:10:49;15.40;99.90
17639;DHT22;8938;53.546;9.954;2023-04-24T06:13:15;15.30;99.90
17639;DHT22;8938;53.546;9.954;2023-04-24T06:15:41;15.30;99.90
17639;DHT22;8938;53.546;9.954;2023-04-24T06:18:06;15.40;99.90
17639;DHT22;8938;53.546;9.954;2023-04-24T06:20:32;15.30;99.90
17639;DHT22;8938;53.546;9.954;2023-04-24T06:22:58;15.40;99.90
17639;DHT22;8938;53.546;9.954;2023-04-24T06:25:25;15.50;99.90
17639;DHT22;8938;53.546;9.954;2023-04-24T06:27:51;15.60;99.90
17639;DHT22;8938;53.546;9.954;2023-04-24T06:30:17;15.70;99.90
17639;DHT22;8938;53.546;9.954;2023-04-24T06:32:42;15.70;99.90
17639;DHT22;8938;53.546;9.954;2023-04-24T06:35:08;15.70;99.90
17639;DHT22;8938;53.546;9.954;2023-04-24T06:37:35;15.70;99.90
17639;DHT22;8938;53.546;9.954;2023-04-24T06:40:01;15.60;99.90
17639;DHT22;8938;53.546;9.954;2023-04-24T06:42:26;15.70;99.90
17639;DHT22;8938;53.546;9.954;2023-04-24T06:44:53;15.80;99.90
17639;DHT22;8938;53.546;9.954;2023-04-24T06:47:18;15.90;99.90
17639;DHT22;8938;53.546;9.954;2023-04-24T06:49:44;15.90;99.90
17639;DHT22;8938;53.546;9.954;2023-04-24T06:52:10;15.90;99.90
17639;DHT22;8938;53.546;9.954;2023-04-24T06:54:35;15.90;99.70
17639;DHT22;8938;53.546;9.954;2023-04-24T06:57:00;15.90;99.70
17639;DHT22;8938;53.546;9.954;2023-04-24T06:59:27;16.00;99.50
17639;DHT22;8938;53.546;9.954;2023-04-24T07:01:53;16.00;99.50
17639;DHT22;8938;53.546;9.954;2023-04-24T07:04:19;16.10;99.30
17639;DHT22;8938;53.546;9.954;2023-04-24T07:06:48;16.00;99.40
17639;DHT22;8938;53.546;9.954;2023-04-24T07:09:15;16.10;99.30
17639;DHT22;8938;53.546;9.954;2023-04-24T07:11:41;16.10;99.30
17639;DHT22;8938;53.546;9.954;2023-04-24T07:14:07;16.20;99.20
17639;DHT22;8938;53.546;9.954;2023-04-24T07:16:33;16.30;99.30
17639;DHT22;8938;53.546;9.954;2023-04-24T07:18:58;16.30;99.00
17639;DHT22;8938;53.546;9.954;2023-04-24T07:21:24;16.30;99.00
17639;DHT22;8938;53.546;9.954;2023-04-24T07:23:50;16.30;98.90
17639;DHT22;8938;53.546;9.954;2023-04-24T07:26:16;16.40;99.00
17639;DHT22;8938;53.546;9.954;2023-04-24T07:28:42;16.40;98.70
17639;DHT22;8938;53.546;9.954;2023-04-24T07:31:08;16.40;98.50
17639;DHT22;8938;53.546;9.954;2023-04-24T07:33:36;16.30;98.60
17639;DHT22;8938;53.546;9.954;2023-04-24T07:36:02;16.40;98.60
17639;DHT22;8938;53.546;9.954;2023-04-24T07:38:30;16.50;98.50
17639;DHT22;8938;53.546;9.954;2023-04-24T07:40:55;16.50;98.70
17639;DHT22;8938;53.546;9.954;2023-04-24T07:43:21;16.50;98.70
17639;DHT22;8938;53.546;9.954;2023-04-24T07:45:47;16.50;98.50
17639;DHT22;8938;53.546;9.954;2023-04-24T07:48:13;16.30;98.40
17639;DHT22;8938;53.546;9.954;2023-04-24T07:50:41;16.30;98.40
17639;DHT22;8938;53.546;9.954;2023-04-24T07:53:07;16.30;98.40
17639;DHT22;8938;53.546;9.954;2023-04-24T07:55:33;16.30;98.30
17639;DHT22;8938;53.546;9.954;2023-04-24T07:58:00;16.50;98.60
17639;DHT22;8938;53.546;9.954;2023-04-24T08:00:26;16.60;98.30
17639;DHT22;8938;53.546;9.954;2023-04-24T08:02:51;16.70;98.30
17639;DHT22;8938;53.546;9.954;2023-04-24T08:05:17;16.80;98.20
17639;DHT22;8938;53.546;9.954;2023-04-24T08:07:42;16.80;98.10
17639;DHT22;8938;53.546;9.954;2023-04-24T08:10:10;16.90;98.10
17639;DHT22;8938;53.546;9.954;2023-04-24T08:12:37;16.90;97.90
17639;DHT22;8938;53.546;9.954;2023-04-24T08:15:04;16.90;97.80
17639;DHT22;8938;53.546;9.954;2023-04-24T08:17:29;16.90;97.70
17639;DHT22;8938;53.546;9.954;2023-04-24T08:19:55;16.80;97.60
17639;DHT22;8938;53.546;9.954;2023-04-24T08:22:27;16.80;97.80
17639;DHT22;8938;53.546;9.954;2023-04-24T08:24:53;16.90;97.80
17639;DHT22;8938;53.546;9.954;2023-04-24T08:27:18;16.90;97.40
17639;DHT22;8938;53.546;9.954;2023-04-24T08:29:44;16.70;97.30
17639;DHT22;8938;53.546;9.954;2023-04-24T08:32:10;16.80;97.50
17639;DHT22;8938;53.546;9.954;2023-04-24T08:34:35;16.80;97.30
17639;DHT22;8938;53.546;9.954;2023-04-24T08:37:01;16.90;97.10
17639;DHT22;8938;53.546;9.954;2023-04-24T08:39:26;16.80;97.00
17639;DHT22;8938;53.546;9.954;2023-04-24T08:41:52;16.90;97.00
17639;DHT22;8938;53.546;9.954;2023-04-24T08:44:19;16.90;97.00
17639;DHT22;8938;53.546;9.954;2023-04-24T08:46:45;16.70;97.00
17639;DHT22;8938;53.546;9.954;2023-04-24T08:49:14;16.70;97.30
17639;DHT22;8938;53.546;9.954;2023-04-24T08:51:44;16.60;97.40
17639;DHT22;8938;53.546;9.954;2023-04-24T08:54:11;16.60;97.60
17639;DHT22;8938;53.546;9.954;2023-04-24T08:56:37;16.70;97.60
17639;DHT22;8938;53.546;9.954;2023-04-24T08:59:06;16.70;97.60
17639;DHT22;8938;53.546;9.954;2023-04-24T09:01:32;17.00;97.70
17639;DHT22;8938;53.546;9.954;2023-04-24T09:04:03;17.30;97.40
17639;DHT22;8938;53.546;9.954;2023-04-24T09:06:30;17.20;97.10
17639;DHT22;8938;53.546;9.954;2023-04-24T09:08:56;17.30;97.30
17639;DHT22;8938;53.546;9.954;2023-04-24T09:11:22;17.50;97.10
17639;DHT22;8938;53.546;9.954;2023-04-24T09:13:50;17.70;96.80
17639;DHT22;8938;53.546;9.954;2023-04-24T09:16:16;17.70;96.40
17639;DHT22;8938;53.546;9.954;2023-04-24T09:18:42;17.50;96.20
17639;DHT22;8938;53.546;9.954;2023-04-24T09:21:09;17.30;96.30
17639;DHT22;8938;53.546;9.954;2023-04-24T09:23:35;17.20;96.60
17639;DHT22;8938;53.546;9.954;2023-04-24T09:26:02;17.10;96.80
17639;DHT22;8938;53.546;9.954;2023-04-24T09:28:36;17.20;97.10
17639;DHT22;8938;53.546;9.954;2023-04-24T09:31:11;17.30;97.10
17639;DHT22;8938;53.546;9.954;2023-04-24T09:33:37;17.40;96.90
17639;DHT22;8938;53.546;9.954;2023-04-24T09:36:02;17.40;96.70
17639;DHT22;8938;53.546;9.954;2023-04-24T09:38:36;17.40;96.70
17639;DHT22;8938;53.546;9.954;2023-04-24T09:41:07;17.20;96.50
17639;DHT22;8938;53.546;9.954;2023-04-24T09:43:33;17.00;96.70
17639;DHT22;8938;53.546;9.954;2023-04-24T09:46:05;17.00;96.80
17639;DHT22;8938;53.546;9.954;2023-04-24T09:48:34;16.70;96.90
17639;DHT22;8938;53.546;9.954;2023-04-24T09:51:02;16.70;97.10
17639;DHT22;8938;53.546;9.954;2023-04-24T09:53:29;16.70;97.20
17639;DHT22;8938;53.546;9.954;2023-04-24T09:55:55;16.60;97.20
17639;DHT22;8938;53.546;9.954;2023-04-24T09:58:25;16.70;97.20
17639;DHT22;8938;53.546;9.954;2023-04-24T10:00:57;16.60;97.30
17639;DHT22;8938;53.546;9.954;2023-04-24T10:03:26;16.60;97.30
17639;DHT22;8938;53.546;9.954;2023-04-24T10:05:58;16.60;97.20
17639;DHT22;8938;53.546;9.954;2023-04-24T10:08:24;16.60;97.30
17639;DHT22;8938;53.546;9.954;2023-04-24T10:10:50;16.50;97.50
17639;DHT22;8938;53.546;9.954;2023-04-24T10:13:15;16.50;97.70
17639;DHT22;8938;53.546;9.954;2023-04-24T10:15:42;16.50;97.80
17639;DHT22;8938;53.546;9.954;2023-04-24T10:18:08;16.60;97.80
17639;DHT22;8938;53.546;9.954;2023-04-24T10:20:37;16.80;97.70
17639;DHT22;8938;53.546;9.954;2023-04-24T10:23:03;16.80;97.60
17639;DHT22;8938;53.546;9.954;2023-04-24T10:25:32;16.80;97.10
17639;DHT22;8938;53.546;9.954;2023-04-24T10:27:59;16.70;97.40
17639;DHT22;8938;53.546;9.954;2023-04-24T10:30:27;16.70;97.30
17639;DHT22;8938;53.546;9.954;2023-04-24T10:32:52;16.70;97.10
17639;DHT22;8938;53.546;9.954;2023-04-24T10:35:18;16.60;97.10
17639;DHT22;8938;53.546;9.954;2023-04-24T10:37:59;16.60;97.30
17639;DHT22;8938;53.546;9.954;2023-04-24T10:40:30;16.60;97.30
17639;DHT22;8938;53.546;9.954;2023-04-24T10:42:56;16.60;97.40
17639;DHT22;8938;53.546;9.954;2023-04-24T10:45:23;16.60;97.30
17639;DHT22;8938;53.546;9.954;2023-04-24T10:48:08;16.60;97.30
17639;DHT22;8938;53.546;9.954;2023-04-24T10:50:46;16.60;97.70
17639;DHT22;8938;53.546;9.954;2023-04-24T10:53:22;16.70;97.70
17639;DHT22;8938;53.546;9.954;2023-04-24T10:58:50;17.00;97.60
17639;DHT22;8938;53.546;9.954;2023-04-24T11:01:29;17.10;97.40
17639;DHT22;8938;53.546;9.954;2023-04-24T11:03:56;17.20;97.10
17639;DHT22;8938;53.546;9.954;2023-04-24T11:06:32;17.30;96.60
17639;DHT22;8938;53.546;9.954;2023-04-24T11:09:05;17.20;96.10
17639;DHT22;8938;53.546;9.954;2023-04-24T11:11:32;17.10;96.30
17639;DHT22;8938;53.546;9.954;2023-04-24T11:16:30;17.00;96.20
17639;DHT22;8938;53.546;9.954;2023-04-24T11:19:05;17.10;95.90
17639;DHT22;8938;53.546;9.954;2023-04-24T11:21:38;17.10;95.90
17639;DHT22;8938;53.546;9.954;2023-04-24T11:24:24;17.20;95.50
17639;DHT22;8938;53.546;9.954;2023-04-24T11:26:55;17.20;95.40
17639;DHT22;8938;53.546;9.954;2023-04-24T11:29:22;17.30;95.60
17639;DHT22;8938;53.546;9.954;2023-04-24T11:31:47;17.50;95.30
17639;DHT22;8938;53.546;9.954;2023-04-24T11:34:15;17.40;94.90
17639;DHT22;8938;53.546;9.954;2023-04-24T11:36:45;17.40;95.20
17639;DHT22;8938;53.546;9.954;2023-04-24T11:39:12;17.30;95.20
17639;DHT22;8938;53.546;9.954;2023-04-24T11:41:38;17.30;95.20
17639;DHT22;8938;53.546;9.954;2023-04-24T11:44:06;17.20;95.10
17639;DHT22;8938;53.546;9.954;2023-04-24T11:46:32;17.20;95.10
17639;DHT22;8938;53.546;9.954;2023-04-24T11:48:58;17.20;95.60
17639;DHT22;8938;53.546;9.954;2023-04-24T11:51:26;17.10;95.50
17639;DHT22;8938;53.546;9.954;2023-04-24T11:53:53;17.20;95.30
17639;DHT22;8938;53.546;9.954;2023-04-24T11:56:20;17.10;95.30
17639;DHT22;8938;53.546;9.954;2023-04-24T11:58:47;17.10;95.20
17639;DHT22;8938;53.546;9.954;2023-04-24T12:01:12;17.00;95.30
17639;DHT22;8938;53.546;9.954;2023-04-24T12:03:38;17.10;95.20
17639;DHT22;8938;53.546;9.954;2023-04-24T12:06:08;17.20;95.20
17639;DHT22;8938;53.546;9.954;2023-04-24T12:08:33;17.30;95.00
17639;DHT22;8938;53.546;9.954;2023-04-24T12:11:03;17.20;94.60
17639;DHT22;8938;53.546;9.954;2023-04-24T12:13:30;17.10;94.60
17639;DHT22;8938;53.546;9.954;2023-04-24T12:15:59;17.00;94.60
17639;DHT22;8938;53.546;9.954;2023-04-24T12:18:26;17.00;94.80
17639;DHT22;8938;53.546;9.954;2023-04-24T12:20:52;17.00;94.70
17639;DHT22;8938;53.546;9.954;2023-04-24T12:23:33;17.00;94.90
17639;DHT22;8938;53.546;9.954;2023-04-24T12:26:00;16.90;94.80
17639;DHT22;8938;53.546;9.954;2023-04-24T12:28:35;17.00;94.80
17639;DHT22;8938;53.546;9.954;2023-04-24T12:31:01;16.90;94.80
17639;DHT22;8938;53.546;9.954;2023-04-24T12:33:26;16.90;94.90
17639;DHT22;8938;53.546;9.954;2023-04-24T12:35:52;16.70;94.90
17639;DHT22;8938;53.546;9.954;2023-04-24T12:38:22;16.50;95.20
17639;DHT22;8938;53.546;9.954;2023-04-24T12:41:11;16.50;95.60
17639;DHT22;8938;53.546;9.954;2023-04-24T12:43:37;16.40;95.60
17639;DHT22;8938;53.546;9.954;2023-04-24T12:46:03;16.40;95.70
17639;DHT22;8938;53.546;9.954;2023-04-24T12:48:30;16.30;96.00
17639;DHT22;8938;53.546;9.954;2023-04-24T12:50:59;16.50;96.10
17639;DHT22;8938;53.546;9.954;2023-04-24T12:53:27;16.40;95.90
17639;DHT22;8938;53.546;9.954;2023-04-24T12:55:54;16.40;96.10
17639;DHT22;8938;53.546;9.954;2023-04-24T12:58:20;16.40;96.20
17639;DHT22;8938;53.546;9.954;2023-04-24T13:00:46;16.30;96.10
17639;DHT22;8938;53.546;9.954;2023-04-24T13:03:12;16.20;96.20
17639;DHT22;8938;53.546;9.954;2023-04-24T13:05:38;16.20;96.20
17639;DHT22;8938;53.546;9.954;2023-04-24T13:08:03;16.10;96.30
17639;DHT22;8938;53.546;9.954;2023-04-24T13:10:29;16.00;96.60
17639;DHT22;8938;53.546;9.954;2023-04-24T13:12:55;16.00;96.60
17639;DHT22;8938;53.546;9.954;2023-04-24T13:15:20;16.10;96.70
17639;DHT22;8938;53.546;9.954;2023-04-24T13:17:46;16.10;97.00
17639;DHT22;8938;53.546;9.954;2023-04-24T13:20:12;16.10;97.20
17639;DHT22;8938;53.546;9.954;2023-04-24T13:22:37;16.00;97.20
17639;DHT22;8938;53.546;9.954;2023-04-24T13:25:03;16.00;97.00
17639;DHT22;8938;53.546;9.954;2023-04-24T13:27:31;16.00;97.10
17639;DHT22;8938;53.546;9.954;2023-04-24T13:29:56;16.00;97.10
17639;DHT22;8938;53.546;9.954;2023-04-24T13:32:22;16.00;97.00
17639;DHT22;8938;53.546;9.954;2023-04-24T13:34:47;16.00;97.10
17639;DHT22;8938;53.546;9.954;2023-04-24T13:37:13;16.10;97.00
17639;DHT22;8938;53.546;9.954;2023-04-24T13:39:39;16.00;97.10
17639;DHT22;8938;53.546;9.954;2023-04-24T13:42:06;16.10;97.20
17639;DHT22;8938;53.546;9.954;2023-04-24T13:44:32;16.20;97.00
17639;DHT22;8938;53.546;9.954;2023-04-24T13:46:57;16.10;96.90
17639;DHT22;8938;53.546;9.954;2023-04-24T13:49:24;16.10;96.80
17639;DHT22;8938;53.546;9.954;2023-04-24T13:51:51;16.10;96.90
17639;DHT22;8938;53.546;9.954;2023-04-24T13:54:16;16.10;96.90
17639;DHT22;8938;53.546;9.954;2023-04-24T13:56:42;16.10;97.00
17639;DHT22;8938;53.546;9.954;2023-04-24T13:59:08;16.10;96.90
17639;DHT22;8938;53.546;9.954;2023-04-24T14:01:34;16.10;96.90
17639;DHT22;8938;53.546;9.954;2023-04-24T14:03:59;16.00;97.00
17639;DHT22;8938;53.546;9.954;2023-04-24T14:06:25;16.10;97.10
17639;DHT22;8938;53.546;9.954;2023-04-24T14:08:51;16.10;97.00
17639;DHT22;8938;53.546;9.954;2023-04-24T14:11:18;16.10;97.00
17639;DHT22;8938;53.546;9.954;2023-04-24T14:13:44;16.20;96.90
17639;DHT22;8938;53.546;9.954;2023-04-24T14:16:10;16.30;96.80
17639;DHT22;8938;53.546;9.954;2023-04-24T14:18:36;16.30;96.60
17639;DHT22;8938;53.546;9.954;2023-04-24T14:21:05;16.30;96.70
17639;DHT22;8938;53.546;9.954;2023-04-24T14:23:30;16.30;96.70
17639;DHT22;8938;53.546;9.954;2023-04-24T14:25:57;16.30;96.60
17639;DHT22;8938;53.546;9.954;2023-04-24T14:28:23;16.20;96.70
17639;DHT22;8938;53.546;9.954;2023-04-24T14:30:48;16.20;96.90
17639;DHT22;8938;53.546;9.954;2023-04-24T14:33:14;16.10;97.00
17639;DHT22;8938;53.546;9.954;2023-04-24T14:35:41;16.10;97.50
17639;DHT22;8938;53.546;9.954;2023-04-24T14:38:10;15.90;97.70
17639;DHT22;8938;53.546;9.954;2023-04-24T14:40:35;15.80;98.50
17639;DHT22;8938;53.546;9.954;2023-04-24T14:43:01;15.60;99.70
17639;DHT22;8938;53.546;9.954;2023-04-24T14:45:27;15.30;99.90
17639;DHT22;8938;53.546;9.954;2023-04-24T14:47:53;15.10;99.90
17639;DHT22;8938;53.546;9.954;2023-04-24T14:50:19;14.90;99.90
17639;DHT22;8938;53.546;9.954;2023-04-24T14:52:45;14.90;99.90
17639;DHT22;8938;53.546;9.954;2023-04-24T14:55:11;14.90;99.90
17639;DHT22;8938;53.546;9.954;2023-04-24T14:57:37;15.00;99.90
17639;DHT22;8938;53.546;9.954;2023-04-24T15:00:04;15.10;99.90
17639;DHT22;8938;53.546;9.954;2023-04-24T15:02:32;14.90;99.90
17639;DHT22;8938;53.546;9.954;2023-04-24T15:04:58;14.80;99.90
17639;DHT22;8938;53.546;9.954;2023-04-24T15:07:24;14.70;99.90
17639;DHT22;8938;53.546;9.954;2023-04-24T15:09:49;14.60;99.90
17639;DHT22;8938;53.546;9.954;2023-04-24T15:12:15;14.50;99.90
17639;DHT22;8938;53.546;9.954;2023-04-24T15:14:40;14.40;99.90
17639;DHT22;8938;53.546;9.954;2023-04-24T15:19:32;14.20;99.90
17639;DHT22;8938;53.546;9.954;2023-04-24T15:21:57;14.10;99.90
17639;DHT22;8938;53.546;9.954;2023-04-24T15:24:23;14.00;99.90
17639;DHT22;8938;53.546;9.954;2023-04-24T15:26:49;13.90;99.90
17639;DHT22;8938;53.546;9.954;2023-04-24T15:29:14;13.80;99.90
17639;DHT22;8938;53.546;9.954;2023-04-24T15:31:40;13.70;99.90
17639;DHT22;8938;53.546;9.954;2023-04-24T15:34:06;13.80;99.90
17639;DHT22;8938;53.546;9.954;2023-04-24T15:38:58;13.80;99.90
17639;DHT22;8938;53.546;9.954;2023-04-24T15:41:23;13.70;99.90
17639;DHT22;8938;53.546;9.954;2023-04-24T15:43:49;13.70;99.90
17639;DHT22;8938;53.546;9.954;2023-04-24T15:46:15;13.50;99.90
17639;DHT22;8938;53.546;9.954;2023-04-24T15:48:41;13.40;99.90
17639;DHT22;8938;53.546;9.954;2023-04-24T15:51:07;13.40;99.90